VA80 weather

Woodle Airport
Midlothian, Virginia, United States

Public forecast

Using degrees Fahrenheit for public forecast. Weather courtesy of forecast.io.

METAR (pilot weather report)

Closest report is Chesterfield County Airport, 9.5 nm (17.6 km) ESE. Retrieved 2019/07/15 17:56 UTC (8 minutes ago):

KFCI 151756Z AUTO VRB04KT 10SM CLR 33/18 A3010 RMK AO2 SLP199 T03280178 10328 20256 58007

TAF (pilot weather forecast)

Closest forecast is Richmond International Airport, 18.3 nm (33.8 km) E. Retrieved 2019/07/15 18:22 UTC (0 seconds ago):

TAF KRIC 151720Z 1518/1618 03008KT P6SM SKC FM152300 VRB03KT P6SM SCT250 FM161400 20005KT P6SM SCT080 SCT150